Emma, Illinois
Current Conditions -  °F | °C
As of 10:55 PM on Wednesday 22 Oct 2014 (Local Time) from KCUL Reporting Station
Clear Clear  
Wind Chill: 42°   Ceiling: Unl
Heat Index: 42°   Visibility: 7mi
Dew Point: 42°   Wind: 0mph
Humidity: 99%   Direction: NA
Pressure: 30.24"   Gusts: NA
Location:  37.97°N, 88.12°W
Report Text: KCUL 230355Z AUTO 00000KT 7SM CLR 06/06 A3024 RMK AO2 T00580057
Loading
Personal Weather Stations






























Interactive Weather Map
Tropical Storm Tracking
New forecast layout! Learn more

10-Day Weather Forecast

Advertisements
Track Severe Weather on mobile